createdAt,value
2017-09-22T00:01:41.275Z,15.97
2017-09-22T00:04:08.529Z,15.97
2017-09-22T00:06:34.966Z,16.09
2017-09-22T00:09:01.357Z,16.11
2017-09-22T00:11:27.735Z,16.06
2017-09-22T00:13:54.677Z,15.98
2017-09-22T00:16:21.063Z,15.88
2017-09-22T00:18:47.536Z,15.86
2017-09-22T00:21:13.983Z,15.87
2017-09-22T00:23:40.521Z,15.81
2017-09-22T00:26:06.955Z,15.69
2017-09-22T00:28:33.390Z,15.58
2017-09-22T00:30:59.825Z,15.50
2017-09-22T00:33:26.364Z,15.44
2017-09-22T00:35:52.797Z,15.57
2017-09-22T00:38:19.232Z,15.65
2017-09-22T00:40:45.667Z,15.60
2017-09-22T00:43:12.203Z,15.63
2017-09-22T00:45:38.638Z,15.68
2017-09-22T00:48:05.020Z,15.64
2017-09-22T00:50:31.406Z,15.51
2017-09-22T00:52:57.944Z,15.33
2017-09-22T00:55:24.381Z,15.20
2017-09-22T00:57:50.815Z,15.14
2017-09-22T01:00:17.248Z,15.15
2017-09-22T01:02:43.786Z,14.98
2017-09-22T01:05:10.221Z,14.93
2017-09-22T01:07:36.666Z,14.88
2017-09-22T01:10:03.040Z,14.86
2017-09-22T01:12:29.520Z,14.95
2017-09-22T01:14:55.961Z,15.10
2017-09-22T01:17:22.395Z,15.21
2017-09-22T01:19:48.830Z,15.33
2017-09-22T01:22:15.264Z,15.27
2017-09-22T01:24:41.698Z,15.27
2017-09-22T01:27:08.850Z,15.34
2017-09-22T01:29:35.285Z,15.47
2017-09-22T01:32:01.721Z,15.59
2017-09-22T01:34:28.257Z,15.61
2017-09-22T01:36:54.691Z,15.48
2017-09-22T01:39:21.075Z,15.35
2017-09-22T01:41:47.553Z,15.32
2017-09-22T01:44:14.716Z,15.33
2017-09-22T01:46:41.149Z,15.28
2017-09-22T01:49:07.583Z,15.28
2017-09-22T01:51:34.019Z,15.24
2017-09-22T01:54:00.555Z,15.24
2017-09-22T01:56:26.990Z,15.22
2017-09-22T01:58:53.429Z,15.22
2017-09-22T02:01:20.578Z,15.19
2017-09-22T02:03:47.012Z,15.26
2017-09-22T02:06:13.430Z,15.32
2017-09-22T02:08:39.984Z,15.33
2017-09-22T02:11:06.422Z,15.27
2017-09-22T02:13:32.957Z,15.18
2017-09-22T02:15:59.372Z,15.22
2017-09-22T02:18:26.541Z,15.22
2017-09-22T02:20:52.929Z,15.20
2017-09-22T02:23:19.413Z,15.19
2017-09-22T02:25:45.799Z,15.19
2017-09-22T02:28:12.283Z,15.06
2017-09-22T02:30:38.718Z,14.92
2017-09-22T02:33:05.254Z,14.92
2017-09-22T02:35:32.305Z,14.90
2017-09-22T02:37:58.739Z,14.78
2017-09-22T02:40:25.174Z,14.83
2017-09-22T02:42:51.610Z,14.87
2017-09-22T02:45:18.044Z,14.92
2017-09-22T02:47:44.524Z,14.96
2017-09-22T02:50:10.973Z,15.07
2017-09-22T02:52:38.167Z,15.15
2017-09-22T02:55:04.603Z,15.19
2017-09-22T02:57:30.987Z,15.15
2017-09-22T02:59:57.371Z,14.99
2017-09-22T03:02:23.732Z,14.93
2017-09-22T03:04:50.222Z,14.97
2017-09-22T03:07:16.674Z,14.97
2017-09-22T03:09:43.827Z,15.06
2017-09-22T03:12:10.248Z,15.22
2017-09-22T03:14:36.696Z,15.32
2017-09-22T03:17:03.131Z,15.36
2017-09-22T03:19:29.565Z,15.32
2017-09-22T03:21:56.002Z,15.35
2017-09-22T03:24:22.538Z,15.30
2017-09-22T03:26:49.587Z,15.36
2017-09-22T03:29:16.127Z,15.33
2017-09-22T03:31:42.661Z,15.39
2017-09-22T03:34:09.097Z,15.46
2017-09-22T03:36:35.532Z,15.58
2017-09-22T03:39:02.025Z,15.67
2017-09-22T03:41:28.504Z,15.72
2017-09-22T03:43:55.655Z,15.68
2017-09-22T03:46:22.091Z,15.58
2017-09-22T03:48:48.526Z,15.50
2017-09-22T03:51:14.965Z,15.52
2017-09-22T03:53:41.395Z,15.60
2017-09-22T03:56:07.829Z,15.68
2017-09-22T03:58:34.368Z,15.82
2017-09-22T04:01:01.418Z,15.91
2017-09-22T04:03:27.953Z,15.98
2017-09-22T04:05:54.389Z,16.03
2017-09-22T04:08:20.823Z,16.08
2017-09-22T04:10:47.259Z,16.06
2017-09-22T04:13:13.796Z,16.10
2017-09-22T04:15:40.345Z,16.13
2017-09-22T04:18:07.472Z,16.15
2017-09-22T04:20:33.919Z,16.20
2017-09-22T04:23:00.459Z,16.10
2017-09-22T04:25:26.893Z,16.04
2017-09-22T04:27:53.328Z,15.95
2017-09-22T04:30:19.762Z,16.01
2017-09-22T04:32:46.300Z,16.12
2017-09-22T04:35:13.349Z,16.16
2017-09-22T04:37:39.783Z,16.20
2017-09-22T04:40:06.218Z,16.16
2017-09-22T04:42:32.755Z,16.16
2017-09-22T04:44:59.191Z,16.16
2017-09-22T04:47:25.625Z,16.19
2017-09-22T04:49:52.061Z,16.14
2017-09-22T04:52:19.314Z,16.17
2017-09-22T04:54:45.749Z,16.17
2017-09-22T04:57:12.184Z,16.17
2017-09-22T04:59:38.618Z,16.19
2017-09-22T05:02:04.997Z,16.20
2017-09-22T05:04:31.476Z,16.18
2017-09-22T05:06:57.923Z,16.18
2017-09-22T05:09:24.936Z,16.16
2017-09-22T05:11:51.410Z,16.04
2017-09-22T05:14:17.946Z,16.01
2017-09-22T05:16:44.379Z,15.99
2017-09-22T05:19:10.817Z,16.13
2017-09-22T05:21:37.249Z,16.19
2017-09-22T05:24:03.791Z,16.24
2017-09-22T05:26:30.839Z,16.24
2017-09-22T05:28:57.273Z,16.29
2017-09-22T05:31:23.625Z,16.29
2017-09-22T05:33:50.140Z,16.31
2017-09-22T05:36:16.780Z,16.36
2017-09-22T05:38:43.218Z,16.41
2017-09-22T05:41:09.657Z,16.47
2017-09-22T05:43:36.292Z,16.52
2017-09-22T05:46:02.727Z,16.55
2017-09-22T05:48:29.161Z,16.60
2017-09-22T05:50:55.596Z,16.61
2017-09-22T05:53:22.162Z,16.63
2017-09-22T05:55:48.670Z,16.66
2017-09-22T05:58:15.105Z,16.70
2017-09-22T06:00:41.538Z,16.72
2017-09-22T06:03:08.076Z,16.72
2017-09-22T06:05:34.511Z,16.74
2017-09-22T06:08:00.895Z,16.81
2017-09-22T06:10:27.483Z,16.82
2017-09-22T06:12:54.021Z,16.79
2017-09-22T06:15:20.458Z,16.78
2017-09-22T06:17:46.949Z,16.75
2017-09-22T06:20:13.427Z,16.72
2017-09-22T06:22:40.272Z,16.73
2017-09-22T06:25:07.219Z,16.78
2017-09-22T06:27:34.165Z,16.79
2017-09-22T06:30:00.621Z,16.85
2017-09-22T06:32:27.650Z,16.93
2017-09-22T06:34:54.084Z,17.01
2017-09-22T06:37:20.532Z,17.05
2017-09-22T06:39:46.904Z,17.09
2017-09-22T06:42:13.594Z,17.17
2017-09-22T06:44:40.030Z,17.06
2017-09-22T06:47:06.566Z,17.09
2017-09-22T06:49:32.952Z,17.13
2017-09-22T06:52:00.153Z,17.25
2017-09-22T06:54:26.690Z,17.39
2017-09-22T06:56:53.075Z,17.44
2017-09-22T06:59:19.561Z,17.53
2017-09-22T07:01:46.122Z,17.58
2017-09-22T07:04:12.634Z,17.67
2017-09-22T07:06:39.070Z,17.68
2017-09-22T07:09:06.118Z,17.65
2017-09-22T07:11:32.553Z,17.61
2017-09-22T07:13:59.091Z,17.55
2017-09-22T07:16:25.526Z,17.48
2017-09-22T07:18:52.063Z,17.45
2017-09-22T07:21:18.498Z,17.48
2017-09-22T07:23:44.986Z,17.49
2017-09-22T07:26:11.368Z,17.59
2017-09-22T07:28:37.802Z,17.68
2017-09-22T07:31:04.237Z,17.74
2017-09-22T07:33:31.494Z,17.80
2017-09-22T07:35:58.029Z,17.97
2017-09-22T07:38:24.464Z,18.03
2017-09-22T07:40:50.883Z,18.03
2017-09-22T07:43:17.436Z,18.14
2017-09-22T07:45:43.975Z,18.29
2017-09-22T07:48:10.411Z,18.45
2017-09-22T07:50:36.844Z,18.57
2017-09-22T07:53:03.371Z,18.59
2017-09-22T07:55:29.814Z,18.68
2017-09-22T07:57:56.352Z,18.65
2017-09-22T08:00:22.788Z,18.71
2017-09-22T08:02:49.642Z,18.85
2017-09-22T08:05:16.057Z,19.00
2017-09-22T08:07:42.706Z,19.15
2017-09-22T08:10:09.141Z,19.30
2017-09-22T08:12:35.577Z,19.21
2017-09-22T08:15:02.421Z,19.07
2017-09-22T08:17:28.909Z,18.99
2017-09-22T08:19:55.392Z,18.89
2017-09-22T08:22:22.033Z,18.87
2017-09-22T08:24:48.678Z,18.77
2017-09-22T08:27:15.106Z,18.71
2017-09-22T08:29:41.646Z,18.71
2017-09-22T08:32:08.497Z,18.81
2017-09-22T08:34:35.028Z,19.08
2017-09-22T08:37:01.521Z,19.01
2017-09-22T08:39:28.306Z,19.07
2017-09-22T08:41:54.742Z,19.09
2017-09-22T08:44:21.385Z,18.99
2017-09-22T08:46:47.815Z,18.87
2017-09-22T08:49:14.249Z,18.90
2017-09-22T08:51:40.685Z,18.90
2017-09-22T08:54:07.427Z,18.93
2017-09-22T08:56:33.861Z,18.92
2017-09-22T08:59:00.296Z,18.92
2017-09-22T09:01:26.732Z,18.89
2017-09-22T09:03:53.269Z,18.76
2017-09-22T09:06:19.703Z,18.74
2017-09-22T09:08:46.237Z,18.70
2017-09-22T09:11:12.675Z,18.73
2017-09-22T09:13:39.219Z,18.81
2017-09-22T09:16:05.648Z,18.92
2017-09-22T09:18:32.082Z,19.06
2017-09-22T09:20:58.517Z,19.02
2017-09-22T09:23:25.056Z,19.02
2017-09-22T09:25:51.490Z,19.09
2017-09-22T09:28:17.925Z,19.06
2017-09-22T09:30:44.360Z,18.93
2017-09-22T09:33:10.898Z,18.86
2017-09-22T09:35:37.332Z,18.90
2017-09-22T09:38:03.766Z,18.77
2017-09-22T09:40:30.200Z,18.68
2017-09-22T09:42:56.738Z,18.67
2017-09-22T09:45:23.603Z,18.61
2017-09-22T09:47:50.224Z,18.66
2017-09-22T09:50:16.608Z,18.69
2017-09-22T09:52:43.196Z,18.65
2017-09-22T09:55:09.724Z,18.64
2017-09-22T09:57:36.271Z,18.75
2017-09-22T10:00:03.229Z,18.66
2017-09-22T10:02:29.754Z,18.69
2017-09-22T10:04:56.499Z,18.66
2017-09-22T10:07:23.234Z,18.58
2017-09-22T10:09:49.677Z,18.55
2017-09-22T10:12:16.536Z,18.48
2017-09-22T10:14:43.157Z,18.49
2017-09-22T10:17:10.007Z,18.48
2017-09-22T10:19:36.645Z,18.57
2017-09-22T10:22:03.180Z,18.65
2017-09-22T10:24:29.630Z,18.56
2017-09-22T10:26:56.748Z,18.60
2017-09-22T10:29:23.193Z,18.67
2017-09-22T10:31:49.634Z,18.67
2017-09-22T10:34:16.150Z,18.72
2017-09-22T10:36:42.606Z,18.70
2017-09-22T10:39:09.042Z,18.72
2017-09-22T10:41:35.476Z,18.68
2017-09-22T10:44:01.967Z,18.65
2017-09-22T10:46:28.448Z,18.63
2017-09-22T10:48:54.883Z,18.65
2017-09-22T10:51:21.268Z,18.66
2017-09-22T10:53:47.752Z,18.72
2017-09-22T10:56:14.290Z,18.69
2017-09-22T10:58:40.828Z,18.56
2017-09-22T11:01:07.262Z,18.55
2017-09-22T11:03:33.800Z,18.53
2017-09-22T11:06:00.337Z,18.60
2017-09-22T11:08:26.771Z,18.66
2017-09-22T11:10:53.207Z,18.76
2017-09-22T11:13:19.732Z,18.79
2017-09-22T11:15:46.789Z,18.85
2017-09-22T11:18:13.229Z,18.93
2017-09-22T11:20:39.664Z,19.14
2017-09-22T11:23:06.201Z,19.09
2017-09-22T11:25:32.739Z,19.08
2017-09-22T11:27:59.172Z,19.09
2017-09-22T11:30:26.017Z,19.17
2017-09-22T11:32:52.558Z,19.25
2017-09-22T11:35:18.949Z,19.20
2017-09-22T11:37:46.087Z,19.16
2017-09-22T11:40:12.576Z,19.13
2017-09-22T11:42:39.112Z,18.97
2017-09-22T11:45:05.549Z,18.86
2017-09-22T11:47:32.085Z,18.80
2017-09-22T11:49:58.520Z,18.91
2017-09-22T11:52:24.896Z,18.97
2017-09-22T11:54:52.106Z,18.85
2017-09-22T11:57:18.541Z,18.85
2017-09-22T11:59:44.937Z,18.91
2017-09-22T12:02:11.410Z,18.98
2017-09-22T12:04:37.846Z,18.94
2017-09-22T12:07:04.282Z,18.92
2017-09-22T12:09:30.717Z,18.97
2017-09-22T12:11:57.150Z,18.96
2017-09-22T12:14:23.585Z,19.04
2017-09-22T12:16:50.839Z,19.03
2017-09-22T12:19:17.692Z,19.00
2017-09-22T12:21:44.326Z,19.05
2017-09-22T12:24:11.165Z,19.04
2017-09-22T12:26:37.602Z,19.03
2017-09-22T12:29:04.127Z,18.81
2017-09-22T12:31:31.087Z,18.71
2017-09-22T12:33:57.624Z,18.70
2017-09-22T12:36:24.067Z,18.72
2017-09-22T12:38:50.768Z,18.60
2017-09-22T12:41:17.338Z,18.57
2017-09-22T12:43:43.875Z,18.53
2017-09-22T12:46:10.875Z,18.51
2017-09-22T12:48:37.360Z,18.42
2017-09-22T12:51:03.796Z,18.20
2017-09-22T12:53:30.332Z,18.00
2017-09-22T12:55:56.767Z,17.94
2017-09-22T12:58:23.159Z,17.88
2017-09-22T13:00:49.534Z,17.95
2017-09-22T13:03:16.071Z,18.01
2017-09-22T13:05:42.507Z,18.02
2017-09-22T13:08:08.891Z,17.98
2017-09-22T13:10:36.085Z,17.89
2017-09-22T13:13:02.528Z,17.91
2017-09-22T13:15:28.917Z,17.90
2017-09-22T13:17:55.398Z,17.94
2017-09-22T13:20:21.832Z,18.01
2017-09-22T13:22:48.371Z,18.03
2017-09-22T13:25:14.776Z,18.03
2017-09-22T13:27:41.943Z,18.05
2017-09-22T13:30:08.387Z,17.96
2017-09-22T13:32:34.884Z,17.90
2017-09-22T13:35:01.346Z,17.89
2017-09-22T13:37:27.799Z,17.78
2017-09-22T13:39:54.336Z,17.64
2017-09-22T13:42:20.770Z,17.67
2017-09-22T13:44:48.025Z,17.68
2017-09-22T13:47:14.460Z,17.74
2017-09-22T13:49:40.849Z,17.63
2017-09-22T13:52:07.331Z,17.59
2017-09-22T13:54:33.867Z,17.58
2017-09-22T13:57:00.301Z,17.52
2017-09-22T13:59:26.735Z,17.55
2017-09-22T14:01:53.888Z,17.50
2017-09-22T14:04:20.425Z,17.50
2017-09-22T14:06:46.862Z,17.50
2017-09-22T14:09:13.294Z,17.52
2017-09-22T14:11:39.730Z,17.45
2017-09-22T14:14:06.267Z,17.47
2017-09-22T14:16:32.701Z,17.47
2017-09-22T14:18:59.956Z,17.49
2017-09-22T14:21:26.380Z,17.48
2017-09-22T14:23:52.887Z,17.41
2017-09-22T14:26:19.363Z,17.41
2017-09-22T14:28:45.737Z,17.41
2017-09-22T14:31:12.223Z,17.35
2017-09-22T14:33:38.771Z,17.38
2017-09-22T14:36:05.922Z,17.37
2017-09-22T14:38:32.362Z,17.35
2017-09-22T14:40:58.792Z,17.34
2017-09-22T14:43:25.279Z,17.37
2017-09-22T14:45:51.765Z,17.38
2017-09-22T14:48:18.203Z,17.34
2017-09-22T14:50:44.584Z,17.32
2017-09-22T14:53:11.889Z,17.33
2017-09-22T14:55:38.320Z,17.26
2017-09-22T14:58:04.757Z,17.23
2017-09-22T15:00:31.182Z,17.19
2017-09-22T15:02:57.731Z,17.13
2017-09-22T15:05:24.164Z,17.17
2017-09-22T15:07:50.584Z,17.12
2017-09-22T15:10:17.751Z,17.00
2017-09-22T15:12:44.288Z,17.04
2017-09-22T15:15:10.722Z,16.96
2017-09-22T15:17:37.210Z,16.88
2017-09-22T15:20:03.695Z,16.81
2017-09-22T15:22:30.130Z,16.79
2017-09-22T15:24:56.564Z,16.77
2017-09-22T15:27:23.620Z,16.72
2017-09-22T15:29:50.048Z,16.65
2017-09-22T15:32:16.432Z,16.59
2017-09-22T15:34:42.872Z,16.48
2017-09-22T15:37:09.251Z,16.40
2017-09-22T15:39:35.685Z,16.29
2017-09-22T15:42:02.204Z,16.16
2017-09-22T15:44:28.760Z,16.10
2017-09-22T15:46:55.195Z,16.03
2017-09-22T15:49:21.644Z,15.95
2017-09-22T15:51:48.022Z,15.89
2017-09-22T15:54:14.491Z,15.87
2017-09-22T15:56:40.890Z,15.80
2017-09-22T15:59:07.323Z,15.83
2017-09-22T16:01:34.521Z,15.88
2017-09-22T16:04:01.059Z,15.94
2017-09-22T16:06:27.493Z,15.99
2017-09-22T16:08:53.930Z,16.02
2017-09-22T16:11:20.365Z,16.05
2017-09-22T16:13:46.852Z,16.02
2017-09-22T16:16:13.336Z,16.01
2017-09-22T16:18:40.487Z,15.97
2017-09-22T16:21:06.875Z,15.97
2017-09-22T16:23:33.356Z,15.94
2017-09-22T16:25:59.792Z,15.96
2017-09-22T16:28:26.329Z,16.02
2017-09-22T16:30:52.765Z,16.09
2017-09-22T16:33:19.301Z,16.10
2017-09-22T16:35:46.780Z,16.08
2017-09-22T16:38:13.195Z,16.12
2017-09-22T16:40:39.630Z,16.16
2017-09-22T16:43:06.168Z,16.19
2017-09-22T16:45:32.602Z,16.15
2017-09-22T16:47:59.037Z,16.13
2017-09-22T16:50:25.472Z,16.03
2017-09-22T16:52:52.623Z,15.96
2017-09-22T16:55:19.058Z,16.00
2017-09-22T16:57:45.493Z,16.08
2017-09-22T17:00:12.012Z,16.10
2017-09-22T17:02:38.568Z,16.10
2017-09-22T17:05:05.003Z,16.09
2017-09-22T17:07:31.436Z,16.04
2017-09-22T17:09:57.975Z,16.05
2017-09-22T17:12:24.409Z,16.00
2017-09-22T17:14:50.800Z,15.94
2017-09-22T17:17:17.280Z,15.92
2017-09-22T17:19:43.715Z,15.93
2017-09-22T17:22:10.148Z,15.99
2017-09-22T17:24:36.561Z,16.02
2017-09-22T17:27:03.838Z,16.10
2017-09-22T17:29:30.272Z,16.16
2017-09-22T17:31:56.666Z,16.20
2017-09-22T17:34:23.148Z,16.25
2017-09-22T17:36:49.576Z,16.25
2017-09-22T17:39:16.017Z,16.22
2017-09-22T17:41:42.447Z,16.16
2017-09-22T17:44:09.606Z,16.23
2017-09-22T17:46:36.020Z,16.32
2017-09-22T17:49:02.439Z,16.34
2017-09-22T17:51:28.861Z,16.28
2017-09-22T17:53:55.321Z,16.28
2017-09-22T17:56:21.719Z,16.29
2017-09-22T17:58:48.206Z,16.35
2017-09-22T18:01:15.348Z,16.39
2017-09-22T18:03:41.848Z,16.45
2017-09-22T18:06:08.331Z,16.54
2017-09-22T18:08:34.773Z,16.52
2017-09-22T18:11:01.201Z,16.50
2017-09-22T18:13:27.738Z,16.41
2017-09-22T18:15:54.173Z,16.37
2017-09-22T18:18:21.428Z,16.37
2017-09-22T18:20:47.862Z,16.38
2017-09-22T18:23:14.400Z,16.35
2017-09-22T18:25:40.784Z,16.40
2017-09-22T18:28:07.270Z,16.35
2017-09-22T18:30:33.705Z,16.28
2017-09-22T18:33:00.243Z,16.32
2017-09-22T18:35:27.393Z,16.34
2017-09-22T18:37:53.827Z,16.33
2017-09-22T18:40:20.263Z,16.26
2017-09-22T18:42:46.801Z,16.27
2017-09-22T18:45:13.236Z,16.25
2017-09-22T18:47:39.655Z,16.23
2017-09-22T18:50:06.109Z,16.26
2017-09-22T18:52:33.256Z,16.30
2017-09-22T18:54:59.694Z,16.32
2017-09-22T18:57:26.230Z,16.31
2017-09-22T18:59:52.593Z,16.30
2017-09-22T19:02:19.091Z,16.27
2017-09-22T19:04:45.487Z,16.27
2017-09-22T19:07:11.969Z,16.21
2017-09-22T19:09:39.120Z,16.18
2017-09-22T19:12:05.555Z,16.15
2017-09-22T19:14:32.055Z,16.06
2017-09-22T19:16:58.526Z,16.05
2017-09-22T19:19:25.177Z,16.12
2017-09-22T19:21:51.707Z,16.15
2017-09-22T19:24:18.243Z,16.15
2017-09-22T19:26:45.393Z,16.11
2017-09-22T19:29:11.828Z,16.13
2017-09-22T19:31:38.266Z,16.18
2017-09-22T19:34:04.803Z,16.18
2017-09-22T19:36:31.241Z,16.16
2017-09-22T19:38:57.669Z,16.13
2017-09-22T19:41:24.113Z,16.07
2017-09-22T19:43:51.358Z,16.04
2017-09-22T19:46:17.897Z,16.00
2017-09-22T19:48:44.330Z,15.97
2017-09-22T19:51:10.766Z,16.01
2017-09-22T19:53:37.304Z,16.02
2017-09-22T19:56:03.741Z,15.93
2017-09-22T19:58:30.172Z,15.90
2017-09-22T20:00:57.429Z,15.84
2017-09-22T20:03:23.962Z,15.89
2017-09-22T20:05:50.398Z,15.89
2017-09-22T20:08:16.783Z,15.82
2017-09-22T20:10:43.252Z,15.78
2017-09-22T20:13:09.805Z,15.74
2017-09-22T20:15:36.240Z,15.76
2017-09-22T20:18:03.392Z,15.76
2017-09-22T20:20:29.827Z,15.84
2017-09-22T20:22:56.363Z,15.82
2017-09-22T20:25:22.800Z,15.84
2017-09-22T20:27:49.244Z,15.87
2017-09-22T20:30:15.668Z,15.77
2017-09-22T20:32:42.156Z,15.76
2017-09-22T20:35:09.357Z,15.82
2017-09-22T20:37:35.795Z,15.84
2017-09-22T20:40:02.183Z,15.78
2017-09-22T20:42:28.661Z,15.76
2017-09-22T20:44:55.098Z,15.64
2017-09-22T20:47:21.533Z,15.64
2017-09-22T20:49:47.966Z,15.55
2017-09-22T20:52:15.220Z,15.46
2017-09-22T20:54:41.654Z,15.46
2017-09-22T20:57:08.179Z,15.35
2017-09-22T20:59:34.627Z,15.39
2017-09-22T21:02:01.062Z,15.41
2017-09-22T21:04:27.497Z,15.51
2017-09-22T21:06:53.930Z,15.46
2017-09-22T21:09:21.083Z,15.49
2017-09-22T21:11:47.518Z,15.47
2017-09-22T21:14:14.052Z,15.41
2017-09-22T21:16:40.491Z,15.38
2017-09-22T21:19:06.925Z,15.33
2017-09-22T21:21:33.359Z,15.34
2017-09-22T21:23:59.897Z,15.26
2017-09-22T21:26:26.914Z,15.24
2017-09-22T21:28:53.381Z,15.18
2017-09-22T21:31:19.816Z,15.19
2017-09-22T21:33:46.353Z,15.17
2017-09-22T21:36:12.788Z,15.14
2017-09-22T21:38:39.222Z,15.19
2017-09-22T21:41:05.658Z,15.13
2017-09-22T21:43:32.913Z,15.14
2017-09-22T21:45:59.327Z,15.07
2017-09-22T21:48:25.777Z,15.01
2017-09-22T21:50:52.216Z,14.99
2017-09-22T21:53:18.755Z,14.99
2017-09-22T21:55:45.151Z,14.96
2017-09-22T21:58:11.625Z,14.94
2017-09-22T22:00:38.784Z,14.87
2017-09-22T22:03:05.313Z,14.84
2017-09-22T22:05:31.702Z,14.75
2017-09-22T22:07:58.183Z,14.70
2017-09-22T22:10:24.618Z,14.74
2017-09-22T22:12:51.144Z,14.73
2017-09-22T22:15:17.591Z,14.64
2017-09-22T22:17:44.743Z,14.67
2017-09-22T22:20:11.178Z,14.62
2017-09-22T22:22:37.713Z,14.59
2017-09-22T22:25:04.149Z,14.51
2017-09-22T22:27:30.583Z,14.54
2017-09-22T22:29:57.017Z,14.51
2017-09-22T22:32:23.453Z,14.61
2017-09-22T22:34:50.604Z,14.60
2017-09-22T22:37:16.992Z,14.59
2017-09-22T22:39:43.473Z,14.62
2017-09-22T22:42:09.879Z,14.62
2017-09-22T22:44:36.321Z,14.61
2017-09-22T22:47:02.678Z,14.62
2017-09-22T22:49:29.110Z,14.67
2017-09-22T22:51:56.365Z,14.70
2017-09-22T22:54:22.904Z,14.74
2017-09-22T22:56:49.337Z,14.76
2017-09-22T22:59:15.873Z,14.71
2017-09-22T23:01:42.309Z,14.76
2017-09-22T23:04:08.798Z,14.84
2017-09-22T23:06:35.278Z,14.92
2017-09-22T23:09:02.438Z,14.98
2017-09-22T23:11:28.827Z,15.00
2017-09-22T23:13:55.302Z,15.03
2017-09-22T23:16:21.687Z,15.04
2017-09-22T23:18:48.172Z,15.03
2017-09-22T23:21:14.607Z,15.07
2017-09-22T23:23:41.145Z,14.99
2017-09-22T23:26:08.297Z,14.97
2017-09-22T23:28:34.731Z,15.03
2017-09-22T23:31:01.166Z,15.01
2017-09-22T23:33:27.704Z,15.04
2017-09-22T23:35:54.138Z,15.06
2017-09-22T23:38:20.504Z,15.02
2017-09-22T23:40:46.966Z,14.97
2017-09-22T23:43:14.159Z,14.98
2017-09-22T23:45:40.595Z,15.07
2017-09-22T23:48:07.030Z,15.15
2017-09-22T23:50:33.466Z,15.23
2017-09-22T23:53:00.004Z,15.27
2017-09-22T23:55:26.437Z,15.29
2017-09-22T23:57:52.788Z,15.27
